Terminal Aerodrome Forecast
Issued by NWS Bismarck, ND

Home | Current Version | Previous Version | Text Only | Print | Product List | Glossary On
Versions: 1 2 3 4 5 6 7 8 9 10 11 12 13 14 15 16
000
FTUS43 KBIS 061100
TAFBIS
TAF
KBIS 061130Z 0612/0712 27005KT P6SM SCT100 SCT150
     FM061800 22010KT P6SM BKN070 BKN100
     FM070000 27010KT P6SM BKN050 BKN100
     FM070200 30013KT P6SM SCT035
     FM070700 31012KT P6SM BKN015 BKN035=

USA.gov is the U.S. government's official web portal to all federal, state and local government web resources and services.